首页
METAR-TAF:

METAR-TAF

机场 :

敖德薩國際機場

敖德薩, 乌克兰

纬度: 46-26N, 经度: 030-46E, 海拔: 42米

当前天气观测

该预报发布于14分钟前的16:00 UTC
风速6节,风向西转西北
温度 5°C
湿度 75%
气压 1016 hPa
能见度10公里或以上
1500米以下无云,无积雨云

METAR: UKOO 081600Z 29003MPS CAVOK 05/01 Q1016 R34/090060 NOSIG

时间: 18:14 (16:14 UTC)

预报

该预报发布于5小时和9分钟前的11:05 UTC
预报有效从08日的 12点(UTC)到 09日的 12点(UTC)
风速10节,风向北转西北,有时为23节阵风
能見度: 6000
多云层高于700英尺
散云层高于1500英尺, 积雨云.
成为
从 08日的 15点(UTC)到 08日的 16点(UTC)
能見度: 2100
轻雾
成为
从 08日的 23点(UTC)到 09日的 01点(UTC)
风速6节,风向南转西南
几率 40% :
短暂存在
从 09日的 01点(UTC)到 09日的 06点(UTC)
能見度: 0400
层高于200英尺
冻雾
成为
从 09日的 06点(UTC)到 09日的 07点(UTC)
能見度: 6000

TAF: UKOO 081105Z 0812/0912 34005G12MPS 6000 BKN007 SCT015CB TX11/0812Z TNM01/0904Z BECMG 0815/0816 2100 BR BECMG 0823/0901 20003MPS PROB40 TEMPO 0901/0906 0400 FZFG VV002 BECMG 0906/0907 6000 NSW

超过4000个机场的气象观测和天气预报(METAR&TAF报告)。

可查询的气象台以黄色和红色小点在地图上表示。

将鼠标移到小点上方,可查看气象台名称。

然后点击查看天气观测和预报。

如需切换地图:点击带黑十字的绿色按钮放大地图;点击带横线的绿色按钮缩小地图;或者点击绿色箭头查看邻近地区的地图。


METAR-TAF: